sensor_id;sensor_type;location;lat;lon;timestamp;temperature;humidity
30379;DHT22;17168;49.164;9.060;2023-08-21T00:00:51;30.20;64.20
30379;DHT22;17168;49.164;9.060;2023-08-21T00:03:23;30.20;64.30
30379;DHT22;17168;49.164;9.060;2023-08-21T00:05:56;30.20;64.40
30379;DHT22;17168;49.164;9.060;2023-08-21T00:08:28;30.20;64.60
30379;DHT22;17168;49.164;9.060;2023-08-21T00:11:01;30.10;64.60
30379;DHT22;17168;49.164;9.060;2023-08-21T00:13:33;30.10;64.70
30379;DHT22;17168;49.164;9.060;2023-08-21T00:16:08;30.10;64.80
30379;DHT22;17168;49.164;9.060;2023-08-21T00:18:40;30.10;64.80
30379;DHT22;17168;49.164;9.060;2023-08-21T00:21:13;30.00;64.60
30379;DHT22;17168;49.164;9.060;2023-08-21T00:23:45;30.00;64.60
30379;DHT22;17168;49.164;9.060;2023-08-21T00:26:17;30.00;64.70
30379;DHT22;17168;49.164;9.060;2023-08-21T00:28:49;29.90;64.70
30379;DHT22;17168;49.164;9.060;2023-08-21T00:31:24;29.90;64.60
30379;DHT22;17168;49.164;9.060;2023-08-21T00:33:56;29.90;64.60
30379;DHT22;17168;49.164;9.060;2023-08-21T00:36:29;29.80;64.60
30379;DHT22;17168;49.164;9.060;2023-08-21T00:39:01;29.80;64.90
30379;DHT22;17168;49.164;9.060;2023-08-21T00:41:33;29.70;64.80
30379;DHT22;17168;49.164;9.060;2023-08-21T00:44:06;29.70;65.20
30379;DHT22;17168;49.164;9.060;2023-08-21T00:46:41;29.70;65.20
30379;DHT22;17168;49.164;9.060;2023-08-21T00:49:13;29.70;65.30
30379;DHT22;17168;49.164;9.060;2023-08-21T00:51:46;29.60;65.30
30379;DHT22;17168;49.164;9.060;2023-08-21T00:54:19;29.60;65.30
30379;DHT22;17168;49.164;9.060;2023-08-21T00:56:51;29.60;65.20
30379;DHT22;17168;49.164;9.060;2023-08-21T00:59:24;29.60;65.60
30379;DHT22;17168;49.164;9.060;2023-08-21T01:01:59;29.50;65.20
30379;DHT22;17168;49.164;9.060;2023-08-21T01:04:31;29.50;65.30
30379;DHT22;17168;49.164;9.060;2023-08-21T01:07:03;29.50;65.20
30379;DHT22;17168;49.164;9.060;2023-08-21T01:09:48;29.40;65.30
30379;DHT22;17168;49.164;9.060;2023-08-21T01:12:25;29.40;65.30
30379;DHT22;17168;49.164;9.060;2023-08-21T01:15:02;29.40;65.30
30379;DHT22;17168;49.164;9.060;2023-08-21T01:17:38;29.40;65.30
30379;DHT22;17168;49.164;9.060;2023-08-21T01:20:11;29.30;65.30
30379;DHT22;17168;49.164;9.060;2023-08-21T01:22:44;29.30;65.50
30379;DHT22;17168;49.164;9.060;2023-08-21T01:25:20;29.20;65.60
30379;DHT22;17168;49.164;9.060;2023-08-21T01:27:53;29.20;65.70
30379;DHT22;17168;49.164;9.060;2023-08-21T01:30:26;29.20;65.70
30379;DHT22;17168;49.164;9.060;2023-08-21T01:33:04;29.20;65.70
30379;DHT22;17168;49.164;9.060;2023-08-21T01:35:38;29.10;65.60
30379;DHT22;17168;49.164;9.060;2023-08-21T01:38:10;29.10;65.50
30379;DHT22;17168;49.164;9.060;2023-08-21T01:40:47;29.10;65.40
30379;DHT22;17168;49.164;9.060;2023-08-21T01:43:19;29.10;65.80
30379;DHT22;17168;49.164;9.060;2023-08-21T01:45:52;29.00;65.80
30379;DHT22;17168;49.164;9.060;2023-08-21T01:48:25;29.00;66.00
30379;DHT22;17168;49.164;9.060;2023-08-21T01:50:57;29.00;66.00
30379;DHT22;17168;49.164;9.060;2023-08-21T01:53:30;28.90;65.70
30379;DHT22;17168;49.164;9.060;2023-08-21T01:56:05;28.70;65.80
30379;DHT22;17168;49.164;9.060;2023-08-21T01:58:37;28.30;66.30
30379;DHT22;17168;49.164;9.060;2023-08-21T02:01:09;27.90;67.00
30379;DHT22;17168;49.164;9.060;2023-08-21T02:03:42;27.50;67.80
30379;DHT22;17168;49.164;9.060;2023-08-21T02:06:15;27.10;68.40
30379;DHT22;17168;49.164;9.060;2023-08-21T02:08:49;26.80;69.30
30379;DHT22;17168;49.164;9.060;2023-08-21T02:11:23;26.40;70.10
30379;DHT22;17168;49.164;9.060;2023-08-21T02:13:56;26.10;70.90
30379;DHT22;17168;49.164;9.060;2023-08-21T02:16:28;25.90;71.70
30379;DHT22;17168;49.164;9.060;2023-08-21T02:19:00;25.60;72.70
30379;DHT22;17168;49.164;9.060;2023-08-21T02:21:34;25.30;73.90
30379;DHT22;17168;49.164;9.060;2023-08-21T02:24:08;25.00;74.30
30379;DHT22;17168;49.164;9.060;2023-08-21T02:26:43;24.80;74.80
30379;DHT22;17168;49.164;9.060;2023-08-21T02:29:17;24.60;75.40
30379;DHT22;17168;49.164;9.060;2023-08-21T02:31:50;24.50;75.90
30379;DHT22;17168;49.164;9.060;2023-08-21T02:34:22;24.30;76.30
30379;DHT22;17168;49.164;9.060;2023-08-21T02:36:55;24.20;76.60
30379;DHT22;17168;49.164;9.060;2023-08-21T02:39:28;24.10;77.10
30379;DHT22;17168;49.164;9.060;2023-08-21T02:42:03;24.00;77.70
30379;DHT22;17168;49.164;9.060;2023-08-21T02:44:35;23.90;78.20
30379;DHT22;17168;49.164;9.060;2023-08-21T02:47:08;23.80;78.60
30379;DHT22;17168;49.164;9.060;2023-08-21T02:49:40;23.70;78.90
30379;DHT22;17168;49.164;9.060;2023-08-21T02:52:12;23.60;79.30
30379;DHT22;17168;49.164;9.060;2023-08-21T02:54:44;23.50;79.90
30379;DHT22;17168;49.164;9.060;2023-08-21T02:57:19;23.40;80.60
30379;DHT22;17168;49.164;9.060;2023-08-21T02:59:52;23.30;81.50
30379;DHT22;17168;49.164;9.060;2023-08-21T03:02:24;23.30;82.30
30379;DHT22;17168;49.164;9.060;2023-08-21T03:04:57;23.20;83.00
30379;DHT22;17168;49.164;9.060;2023-08-21T03:07:29;23.10;83.70
30379;DHT22;17168;49.164;9.060;2023-08-21T03:10:01;23.10;84.50
30379;DHT22;17168;49.164;9.060;2023-08-21T03:12:39;23.00;85.20
30379;DHT22;17168;49.164;9.060;2023-08-21T03:15:12;22.90;86.10
30379;DHT22;17168;49.164;9.060;2023-08-21T03:17:44;22.90;87.10
30379;DHT22;17168;49.164;9.060;2023-08-21T03:20:16;22.80;88.10
30379;DHT22;17168;49.164;9.060;2023-08-21T03:22:52;22.80;89.00
30379;DHT22;17168;49.164;9.060;2023-08-21T03:25:24;22.80;90.00
30379;DHT22;17168;49.164;9.060;2023-08-21T03:27:59;22.70;90.60
30379;DHT22;17168;49.164;9.060;2023-08-21T03:30:31;22.70;91.00
30379;DHT22;17168;49.164;9.060;2023-08-21T03:33:04;22.60;91.20
30379;DHT22;17168;49.164;9.060;2023-08-21T03:35:36;22.60;91.40
30379;DHT22;17168;49.164;9.060;2023-08-21T03:38:09;22.60;91.70
30379;DHT22;17168;49.164;9.060;2023-08-21T03:40:41;22.50;92.00
30379;DHT22;17168;49.164;9.060;2023-08-21T03:43:16;22.50;92.60
30379;DHT22;17168;49.164;9.060;2023-08-21T03:45:48;22.50;93.40
30379;DHT22;17168;49.164;9.060;2023-08-21T03:48:21;22.50;93.60
30379;DHT22;17168;49.164;9.060;2023-08-21T03:50:54;22.50;94.00
30379;DHT22;17168;49.164;9.060;2023-08-21T03:53:26;22.40;94.30
30379;DHT22;17168;49.164;9.060;2023-08-21T03:55:59;22.40;94.80
30379;DHT22;17168;49.164;9.060;2023-08-21T03:58:34;22.40;95.00
30379;DHT22;17168;49.164;9.060;2023-08-21T04:01:06;22.40;95.30
30379;DHT22;17168;49.164;9.060;2023-08-21T04:03:38;22.30;95.50
30379;DHT22;17168;49.164;9.060;2023-08-21T04:06:11;22.40;95.70
30379;DHT22;17168;49.164;9.060;2023-08-21T04:08:43;22.30;96.00
30379;DHT22;17168;49.164;9.060;2023-08-21T04:11:15;22.30;96.10
30379;DHT22;17168;49.164;9.060;2023-08-21T04:13:50;22.30;96.40
30379;DHT22;17168;49.164;9.060;2023-08-21T04:16:22;22.20;96.50
30379;DHT22;17168;49.164;9.060;2023-08-21T04:18:55;22.20;96.80
30379;DHT22;17168;49.164;9.060;2023-08-21T04:21:27;22.20;97.00
30379;DHT22;17168;49.164;9.060;2023-08-21T04:23:59;22.20;97.20
30379;DHT22;17168;49.164;9.060;2023-08-21T04:26:32;22.10;97.30
30379;DHT22;17168;49.164;9.060;2023-08-21T04:29:07;22.10;97.40
30379;DHT22;17168;49.164;9.060;2023-08-21T04:31:39;22.10;97.50
30379;DHT22;17168;49.164;9.060;2023-08-21T04:34:11;22.00;97.60
30379;DHT22;17168;49.164;9.060;2023-08-21T04:36:44;22.00;97.60
30379;DHT22;17168;49.164;9.060;2023-08-21T04:39:16;22.00;97.90
30379;DHT22;17168;49.164;9.060;2023-08-21T04:41:48;21.90;98.00
30379;DHT22;17168;49.164;9.060;2023-08-21T04:44:23;22.00;98.20
30379;DHT22;17168;49.164;9.060;2023-08-21T04:46:56;21.90;98.40
30379;DHT22;17168;49.164;9.060;2023-08-21T04:49:29;21.90;98.60
30379;DHT22;17168;49.164;9.060;2023-08-21T04:52:01;21.90;98.80
30379;DHT22;17168;49.164;9.060;2023-08-21T04:54:33;21.90;99.00
30379;DHT22;17168;49.164;9.060;2023-08-21T04:57:06;21.90;99.30
30379;DHT22;17168;49.164;9.060;2023-08-21T04:59:41;21.90;99.50
30379;DHT22;17168;49.164;9.060;2023-08-21T05:02:14;21.80;99.60
30379;DHT22;17168;49.164;9.060;2023-08-21T05:04:46;21.90;99.60
30379;DHT22;17168;49.164;9.060;2023-08-21T05:07:18;21.90;99.80
30379;DHT22;17168;49.164;9.060;2023-08-21T05:09:51;21.90;99.90
30379;DHT22;17168;49.164;9.060;2023-08-21T05:12:23;21.90;99.90
30379;DHT22;17168;49.164;9.060;2023-08-21T05:14:58;21.90;99.90
30379;DHT22;17168;49.164;9.060;2023-08-21T05:17:30;21.90;99.90
30379;DHT22;17168;49.164;9.060;2023-08-21T05:20:04;21.90;99.90
30379;DHT22;17168;49.164;9.060;2023-08-21T05:22:37;21.90;99.90
30379;DHT22;17168;49.164;9.060;2023-08-21T05:25:10;21.90;99.90
30379;DHT22;17168;49.164;9.060;2023-08-21T05:27:42;21.90;99.90
30379;DHT22;17168;49.164;9.060;2023-08-21T05:30:17;21.90;99.90
30379;DHT22;17168;49.164;9.060;2023-08-21T05:32:50;22.00;99.90
30379;DHT22;17168;49.164;9.060;2023-08-21T05:35:22;22.00;99.90
30379;DHT22;17168;49.164;9.060;2023-08-21T05:37:55;22.00;99.90
30379;DHT22;17168;49.164;9.060;2023-08-21T05:40:27;22.00;99.90
30379;DHT22;17168;49.164;9.060;2023-08-21T05:42:59;22.00;99.90
30379;DHT22;17168;49.164;9.060;2023-08-21T05:45:34;22.10;99.90
30379;DHT22;17168;49.164;9.060;2023-08-21T05:48:06;22.10;99.90
30379;DHT22;17168;49.164;9.060;2023-08-21T05:50:39;22.20;99.90
30379;DHT22;17168;49.164;9.060;2023-08-21T05:53:11;22.20;99.90
30379;DHT22;17168;49.164;9.060;2023-08-21T05:55:43;22.30;99.90
30379;DHT22;17168;49.164;9.060;2023-08-21T05:58:17;22.30;99.90
30379;DHT22;17168;49.164;9.060;2023-08-21T06:00:52;22.40;99.90
30379;DHT22;17168;49.164;9.060;2023-08-21T06:03:24;22.40;99.90
30379;DHT22;17168;49.164;9.060;2023-08-21T06:05:57;22.50;99.90
30379;DHT22;17168;49.164;9.060;2023-08-21T06:08:29;22.60;99.90
30379;DHT22;17168;49.164;9.060;2023-08-21T06:11:01;22.60;99.90
30379;DHT22;17168;49.164;9.060;2023-08-21T06:13:33;22.60;99.90
30379;DHT22;17168;49.164;9.060;2023-08-21T06:16:08;22.70;99.90
30379;DHT22;17168;49.164;9.060;2023-08-21T06:18:42;22.80;99.90
30379;DHT22;17168;49.164;9.060;2023-08-21T06:21:14;22.80;99.90
30379;DHT22;17168;49.164;9.060;2023-08-21T06:23:46;22.90;99.90
30379;DHT22;17168;49.164;9.060;2023-08-21T06:26:19;22.90;99.90
30379;DHT22;17168;49.164;9.060;2023-08-21T06:28:51;23.00;99.90
30379;DHT22;17168;49.164;9.060;2023-08-21T06:31:27;23.00;99.90
30379;DHT22;17168;49.164;9.060;2023-08-21T06:33:59;23.10;99.90
30379;DHT22;17168;49.164;9.060;2023-08-21T06:36:31;23.10;99.90
30379;DHT22;17168;49.164;9.060;2023-08-21T06:39:04;23.20;99.90
30379;DHT22;17168;49.164;9.060;2023-08-21T06:41:36;23.30;99.90
30379;DHT22;17168;49.164;9.060;2023-08-21T06:44:09;23.40;99.90
30379;DHT22;17168;49.164;9.060;2023-08-21T06:46:44;23.40;99.90
30379;DHT22;17168;49.164;9.060;2023-08-21T06:49:16;23.50;99.90
30379;DHT22;17168;49.164;9.060;2023-08-21T06:51:48;23.60;99.90
30379;DHT22;17168;49.164;9.060;2023-08-21T06:54:20;23.70;99.90
30379;DHT22;17168;49.164;9.060;2023-08-21T06:56:53;23.70;99.90
30379;DHT22;17168;49.164;9.060;2023-08-21T06:59:26;23.80;99.90
30379;DHT22;17168;49.164;9.060;2023-08-21T07:02:01;23.90;99.90
30379;DHT22;17168;49.164;9.060;2023-08-21T07:04:33;24.00;99.90
30379;DHT22;17168;49.164;9.060;2023-08-21T07:07:05;24.00;99.90
30379;DHT22;17168;49.164;9.060;2023-08-21T07:09:38;24.10;99.90
30379;DHT22;17168;49.164;9.060;2023-08-21T07:12:10;24.20;99.90
30379;DHT22;17168;49.164;9.060;2023-08-21T07:14:42;24.30;99.90
30379;DHT22;17168;49.164;9.060;2023-08-21T07:17:17;24.30;99.90
30379;DHT22;17168;49.164;9.060;2023-08-21T07:19:52;24.40;99.90
30379;DHT22;17168;49.164;9.060;2023-08-21T07:22:26;24.50;99.90
30379;DHT22;17168;49.164;9.060;2023-08-21T07:24:59;24.50;99.90
30379;DHT22;17168;49.164;9.060;2023-08-21T07:27:35;24.60;99.90
30379;DHT22;17168;49.164;9.060;2023-08-21T07:30:08;24.70;99.90
30379;DHT22;17168;49.164;9.060;2023-08-21T07:32:44;24.70;99.90
30379;DHT22;17168;49.164;9.060;2023-08-21T07:35:16;24.80;99.90
30379;DHT22;17168;49.164;9.060;2023-08-21T07:37:49;24.80;99.90
30379;DHT22;17168;49.164;9.060;2023-08-21T07:40:21;24.90;99.90
30379;DHT22;17168;49.164;9.060;2023-08-21T07:42:53;25.00;99.70
30379;DHT22;17168;49.164;9.060;2023-08-21T07:45:26;25.10;99.60
30379;DHT22;17168;49.164;9.060;2023-08-21T07:48:01;25.10;99.40
30379;DHT22;17168;49.164;9.060;2023-08-21T07:50:51;25.20;99.10
30379;DHT22;17168;49.164;9.060;2023-08-21T07:53:23;25.20;99.00
30379;DHT22;17168;49.164;9.060;2023-08-21T07:55:55;25.30;98.80
30379;DHT22;17168;49.164;9.060;2023-08-21T07:58:28;25.40;98.80
30379;DHT22;17168;49.164;9.060;2023-08-21T08:01:00;25.40;98.70
30379;DHT22;17168;49.164;9.060;2023-08-21T08:03:39;25.50;98.70
30379;DHT22;17168;49.164;9.060;2023-08-21T08:06:12;25.60;98.60
30379;DHT22;17168;49.164;9.060;2023-08-21T08:08:44;25.60;98.40
30379;DHT22;17168;49.164;9.060;2023-08-21T08:11:17;25.70;98.20
30379;DHT22;17168;49.164;9.060;2023-08-21T08:13:50;25.80;97.90
30379;DHT22;17168;49.164;9.060;2023-08-21T08:16:22;25.80;97.60
30379;DHT22;17168;49.164;9.060;2023-08-21T08:18:57;25.90;97.60
30379;DHT22;17168;49.164;9.060;2023-08-21T08:21:30;26.00;97.40
30379;DHT22;17168;49.164;9.060;2023-08-21T08:24:03;26.00;97.20
30379;DHT22;17168;49.164;9.060;2023-08-21T08:26:36;26.10;97.00
30379;DHT22;17168;49.164;9.060;2023-08-21T08:29:08;26.20;96.90
30379;DHT22;17168;49.164;9.060;2023-08-21T08:31:40;26.20;96.90
30379;DHT22;17168;49.164;9.060;2023-08-21T08:34:15;26.30;97.00
30379;DHT22;17168;49.164;9.060;2023-08-21T08:36:52;26.40;96.80
30379;DHT22;17168;49.164;9.060;2023-08-21T08:39:25;26.50;96.70
30379;DHT22;17168;49.164;9.060;2023-08-21T08:42:00;26.50;96.50
30379;DHT22;17168;49.164;9.060;2023-08-21T08:44:35;26.60;96.40
30379;DHT22;17168;49.164;9.060;2023-08-21T08:47:13;26.70;96.00
30379;DHT22;17168;49.164;9.060;2023-08-21T08:49:49;26.80;95.70
30379;DHT22;17168;49.164;9.060;2023-08-21T08:52:22;26.90;95.40
30379;DHT22;17168;49.164;9.060;2023-08-21T08:54:58;26.90;95.20
30379;DHT22;17168;49.164;9.060;2023-08-21T08:57:31;27.00;94.90
30379;DHT22;17168;49.164;9.060;2023-08-21T09:00:05;27.10;94.60
30379;DHT22;17168;49.164;9.060;2023-08-21T09:02:38;27.20;94.40
30379;DHT22;17168;49.164;9.060;2023-08-21T09:05:13;27.20;93.80
30379;DHT22;17168;49.164;9.060;2023-08-21T09:07:45;27.30;93.30
30379;DHT22;17168;49.164;9.060;2023-08-21T09:10:18;27.40;93.10
30379;DHT22;17168;49.164;9.060;2023-08-21T09:12:51;27.40;92.60
30379;DHT22;17168;49.164;9.060;2023-08-21T09:15:28;27.50;91.90
30379;DHT22;17168;49.164;9.060;2023-08-21T09:18:13;27.50;91.50
30379;DHT22;17168;49.164;9.060;2023-08-21T09:20:49;27.60;91.30
30379;DHT22;17168;49.164;9.060;2023-08-21T09:23:21;27.70;91.30
30379;DHT22;17168;49.164;9.060;2023-08-21T09:25:54;27.70;90.70
30379;DHT22;17168;49.164;9.060;2023-08-21T09:28:26;27.90;90.30
30379;DHT22;17168;49.164;9.060;2023-08-21T09:30:58;27.90;89.60
30379;DHT22;17168;49.164;9.060;2023-08-21T09:33:30;28.00;88.70
30379;DHT22;17168;49.164;9.060;2023-08-21T09:36:06;28.20;88.50
30379;DHT22;17168;49.164;9.060;2023-08-21T09:38:45;28.20;87.20
30379;DHT22;17168;49.164;9.060;2023-08-21T09:41:19;28.40;86.30
30379;DHT22;17168;49.164;9.060;2023-08-21T09:43:52;28.40;85.90
30379;DHT22;17168;49.164;9.060;2023-08-21T09:46:25;28.50;86.30
30379;DHT22;17168;49.164;9.060;2023-08-21T09:48:58;28.60;86.00
30379;DHT22;17168;49.164;9.060;2023-08-21T09:51:34;28.70;85.70
30379;DHT22;17168;49.164;9.060;2023-08-21T09:54:06;28.80;84.30
30379;DHT22;17168;49.164;9.060;2023-08-21T09:56:40;28.90;82.50
30379;DHT22;17168;49.164;9.060;2023-08-21T09:59:13;28.90;81.60
30379;DHT22;17168;49.164;9.060;2023-08-21T10:01:47;29.00;81.00
30379;DHT22;17168;49.164;9.060;2023-08-21T10:04:22;29.10;80.30
30379;DHT22;17168;49.164;9.060;2023-08-21T10:06:58;29.20;79.80
30379;DHT22;17168;49.164;9.060;2023-08-21T10:09:32;29.20;79.70
30379;DHT22;17168;49.164;9.060;2023-08-21T10:12:06;29.30;78.10
30379;DHT22;17168;49.164;9.060;2023-08-21T10:14:41;29.40;77.70
30379;DHT22;17168;49.164;9.060;2023-08-21T10:17:14;29.40;76.50
30379;DHT22;17168;49.164;9.060;2023-08-21T10:19:54;29.50;73.90
30379;DHT22;17168;49.164;9.060;2023-08-21T10:22:45;29.60;73.60
30379;DHT22;17168;49.164;9.060;2023-08-21T10:25:18;29.60;71.70
30379;DHT22;17168;49.164;9.060;2023-08-21T10:28:02;29.70;70.50
30379;DHT22;17168;49.164;9.060;2023-08-21T10:30:37;29.70;70.40
30379;DHT22;17168;49.164;9.060;2023-08-21T10:33:09;29.80;70.10
30379;DHT22;17168;49.164;9.060;2023-08-21T10:35:42;29.90;70.10
30379;DHT22;17168;49.164;9.060;2023-08-21T10:38:17;29.90;70.60
30379;DHT22;17168;49.164;9.060;2023-08-21T10:41:06;30.00;70.80
30379;DHT22;17168;49.164;9.060;2023-08-21T10:43:40;30.10;70.30
30379;DHT22;17168;49.164;9.060;2023-08-21T10:46:12;30.20;70.00
30379;DHT22;17168;49.164;9.060;2023-08-21T10:48:45;30.30;70.30
30379;DHT22;17168;49.164;9.060;2023-08-21T10:51:17;30.40;70.40
30379;DHT22;17168;49.164;9.060;2023-08-21T10:53:52;30.40;70.10
30379;DHT22;17168;49.164;9.060;2023-08-21T10:56:25;30.50;69.50
30379;DHT22;17168;49.164;9.060;2023-08-21T10:58:58;30.60;69.70
30379;DHT22;17168;49.164;9.060;2023-08-21T11:01:42;30.70;69.60
30379;DHT22;17168;49.164;9.060;2023-08-21T11:04:17;30.80;69.50
30379;DHT22;17168;49.164;9.060;2023-08-21T11:06:51;30.90;68.90
30379;DHT22;17168;49.164;9.060;2023-08-21T11:09:26;31.10;68.20
30379;DHT22;17168;49.164;9.060;2023-08-21T11:11:58;31.20;67.60
30379;DHT22;17168;49.164;9.060;2023-08-21T11:14:31;31.30;67.20
30379;DHT22;17168;49.164;9.060;2023-08-21T11:17:03;31.40;67.10
30379;DHT22;17168;49.164;9.060;2023-08-21T11:19:37;31.50;66.90
30379;DHT22;17168;49.164;9.060;2023-08-21T11:22:10;31.60;66.70
30379;DHT22;17168;49.164;9.060;2023-08-21T11:24:46;31.70;66.50
30379;DHT22;17168;49.164;9.060;2023-08-21T11:27:19;31.80;66.10
30379;DHT22;17168;49.164;9.060;2023-08-21T11:29:55;32.00;65.60
30379;DHT22;17168;49.164;9.060;2023-08-21T11:32:28;32.10;65.00
30379;DHT22;17168;49.164;9.060;2023-08-21T11:35:00;32.20;64.70
30379;DHT22;17168;49.164;9.060;2023-08-21T11:37:32;32.20;64.50
30379;DHT22;17168;49.164;9.060;2023-08-21T11:40:09;32.30;64.40
30379;DHT22;17168;49.164;9.060;2023-08-21T11:42:41;32.40;63.90
30379;DHT22;17168;49.164;9.060;2023-08-21T11:45:14;32.40;64.00
30379;DHT22;17168;49.164;9.060;2023-08-21T11:47:46;32.50;63.90
30379;DHT22;17168;49.164;9.060;2023-08-21T11:50:18;32.60;63.70
30379;DHT22;17168;49.164;9.060;2023-08-21T11:52:52;32.60;63.20
30379;DHT22;17168;49.164;9.060;2023-08-21T11:55:29;32.80;63.20
30379;DHT22;17168;49.164;9.060;2023-08-21T11:58:01;33.10;63.00
30379;DHT22;17168;49.164;9.060;2023-08-21T12:00:34;33.60;62.10
30379;DHT22;17168;49.164;9.060;2023-08-21T12:03:07;34.20;60.80
30379;DHT22;17168;49.164;9.060;2023-08-21T12:05:43;34.90;60.10
30379;DHT22;17168;49.164;9.060;2023-08-21T12:08:16;35.50;58.80
30379;DHT22;17168;49.164;9.060;2023-08-21T12:10:52;36.20;57.70
30379;DHT22;17168;49.164;9.060;2023-08-21T12:13:25;36.70;53.90
30379;DHT22;17168;49.164;9.060;2023-08-21T12:16:01;37.00;52.90
30379;DHT22;17168;49.164;9.060;2023-08-21T12:18:33;37.10;52.60
30379;DHT22;17168;49.164;9.060;2023-08-21T12:21:05;37.10;52.60
30379;DHT22;17168;49.164;9.060;2023-08-21T12:23:40;37.40;51.50
30379;DHT22;17168;49.164;9.060;2023-08-21T12:26:14;37.60;51.40
30379;DHT22;17168;49.164;9.060;2023-08-21T12:28:57;37.90;52.00
30379;DHT22;17168;49.164;9.060;2023-08-21T12:31:29;38.40;51.40
30379;DHT22;17168;49.164;9.060;2023-08-21T12:34:02;38.80;50.90
30379;DHT22;17168;49.164;9.060;2023-08-21T12:36:36;39.30;50.40
30379;DHT22;17168;49.164;9.060;2023-08-21T12:39:09;39.70;50.20
30379;DHT22;17168;49.164;9.060;2023-08-21T12:41:43;39.90;49.30
30379;DHT22;17168;49.164;9.060;2023-08-21T12:44:16;40.00;48.60
30379;DHT22;17168;49.164;9.060;2023-08-21T12:46:48;39.80;48.20
30379;DHT22;17168;49.164;9.060;2023-08-21T12:49:20;39.60;48.60
30379;DHT22;17168;49.164;9.060;2023-08-21T12:51:53;39.50;48.40
30379;DHT22;17168;49.164;9.060;2023-08-21T12:54:25;39.60;48.30
30379;DHT22;17168;49.164;9.060;2023-08-21T12:57:00;39.90;48.10
30379;DHT22;17168;49.164;9.060;2023-08-21T12:59:32;40.20;48.00
30379;DHT22;17168;49.164;9.060;2023-08-21T13:02:05;40.40;47.40
30379;DHT22;17168;49.164;9.060;2023-08-21T13:04:38;40.70;47.20
30379;DHT22;17168;49.164;9.060;2023-08-21T13:07:10;40.80;46.60
30379;DHT22;17168;49.164;9.060;2023-08-21T13:09:42;40.80;46.60
30379;DHT22;17168;49.164;9.060;2023-08-21T13:12:17;40.80;46.40
30379;DHT22;17168;49.164;9.060;2023-08-21T13:14:49;40.70;46.00
30379;DHT22;17168;49.164;9.060;2023-08-21T13:17:21;40.60;46.10
30379;DHT22;17168;49.164;9.060;2023-08-21T13:19:54;40.40;46.50
30379;DHT22;17168;49.164;9.060;2023-08-21T13:22:26;40.20;46.40
30379;DHT22;17168;49.164;9.060;2023-08-21T13:24:58;40.20;46.70
30379;DHT22;17168;49.164;9.060;2023-08-21T13:27:33;40.20;46.60
30379;DHT22;17168;49.164;9.060;2023-08-21T13:30:07;40.20;46.40
30379;DHT22;17168;49.164;9.060;2023-08-21T13:32:40;40.30;46.80
30379;DHT22;17168;49.164;9.060;2023-08-21T13:35:12;40.50;46.30
30379;DHT22;17168;49.164;9.060;2023-08-21T13:37:45;40.60;45.80
30379;DHT22;17168;49.164;9.060;2023-08-21T13:40:17;40.70;45.30
30379;DHT22;17168;49.164;9.060;2023-08-21T13:42:52;40.70;45.60
30379;DHT22;17168;49.164;9.060;2023-08-21T13:45:25;40.80;46.00
30379;DHT22;17168;49.164;9.060;2023-08-21T13:47:57;41.00;45.90
30379;DHT22;17168;49.164;9.060;2023-08-21T13:50:29;41.00;45.50
30379;DHT22;17168;49.164;9.060;2023-08-21T13:53:02;41.00;45.50
30379;DHT22;17168;49.164;9.060;2023-08-21T13:55:35;40.80;45.40
30379;DHT22;17168;49.164;9.060;2023-08-21T13:58:10;40.80;45.10
30379;DHT22;17168;49.164;9.060;2023-08-21T14:00:43;40.70;45.00
30379;DHT22;17168;49.164;9.060;2023-08-21T14:03:16;40.70;45.20
30379;DHT22;17168;49.164;9.060;2023-08-21T14:05:49;40.50;45.20
30379;DHT22;17168;49.164;9.060;2023-08-21T14:08:21;40.30;45.20
30379;DHT22;17168;49.164;9.060;2023-08-21T14:10:53;40.20;45.30
30379;DHT22;17168;49.164;9.060;2023-08-21T14:13:28;40.00;45.30
30379;DHT22;17168;49.164;9.060;2023-08-21T14:16:00;39.80;45.50
30379;DHT22;17168;49.164;9.060;2023-08-21T14:18:33;39.60;45.50
30379;DHT22;17168;49.164;9.060;2023-08-21T14:21:05;39.50;46.00
30379;DHT22;17168;49.164;9.060;2023-08-21T14:23:38;39.50;46.40
30379;DHT22;17168;49.164;9.060;2023-08-21T14:26:11;39.50;46.20
30379;DHT22;17168;49.164;9.060;2023-08-21T14:28:46;39.50;46.10
30379;DHT22;17168;49.164;9.060;2023-08-21T14:31:22;39.30;46.20
30379;DHT22;17168;49.164;9.060;2023-08-21T14:33:54;39.10;46.20
30379;DHT22;17168;49.164;9.060;2023-08-21T14:36:26;38.90;46.30
30379;DHT22;17168;49.164;9.060;2023-08-21T14:38:59;38.80;46.80
30379;DHT22;17168;49.164;9.060;2023-08-21T14:41:31;38.70;47.10
30379;DHT22;17168;49.164;9.060;2023-08-21T14:44:06;38.60;47.30
30379;DHT22;17168;49.164;9.060;2023-08-21T14:46:39;38.50;47.70
30379;DHT22;17168;49.164;9.060;2023-08-21T14:49:14;38.20;47.70
30379;DHT22;17168;49.164;9.060;2023-08-21T14:51:46;38.10;47.90
30379;DHT22;17168;49.164;9.060;2023-08-21T14:54:19;37.90;47.80
30379;DHT22;17168;49.164;9.060;2023-08-21T14:56:51;37.80;47.90
30379;DHT22;17168;49.164;9.060;2023-08-21T14:59:26;37.80;48.10
30379;DHT22;17168;49.164;9.060;2023-08-21T15:01:58;37.70;48.30
30379;DHT22;17168;49.164;9.060;2023-08-21T15:04:31;37.60;48.50
30379;DHT22;17168;49.164;9.060;2023-08-21T15:07:03;37.60;47.80
30379;DHT22;17168;49.164;9.060;2023-08-21T15:09:35;37.50;47.70
30379;DHT22;17168;49.164;9.060;2023-08-21T15:12:09;37.40;47.80
30379;DHT22;17168;49.164;9.060;2023-08-21T15:14:45;37.40;48.10
30379;DHT22;17168;49.164;9.060;2023-08-21T15:17:18;37.30;47.90
30379;DHT22;17168;49.164;9.060;2023-08-21T15:19:51;37.20;47.80
30379;DHT22;17168;49.164;9.060;2023-08-21T15:22:23;37.20;47.70
30379;DHT22;17168;49.164;9.060;2023-08-21T15:24:58;37.20;47.90
30379;DHT22;17168;49.164;9.060;2023-08-21T15:27:34;37.10;47.70
30379;DHT22;17168;49.164;9.060;2023-08-21T15:30:11;37.10;47.40
30379;DHT22;17168;49.164;9.060;2023-08-21T15:32:43;37.00;47.50
30379;DHT22;17168;49.164;9.060;2023-08-21T15:35:17;36.90;47.70
30379;DHT22;17168;49.164;9.060;2023-08-21T15:37:49;36.90;47.90
30379;DHT22;17168;49.164;9.060;2023-08-21T15:40:22;36.80;48.10
30379;DHT22;17168;49.164;9.060;2023-08-21T15:42:54;36.80;48.00
30379;DHT22;17168;49.164;9.060;2023-08-21T15:45:29;36.70;47.80
30379;DHT22;17168;49.164;9.060;2023-08-21T15:48:02;36.70;47.60
30379;DHT22;17168;49.164;9.060;2023-08-21T15:50:34;36.70;47.90
30379;DHT22;17168;49.164;9.060;2023-08-21T15:53:06;36.70;48.00
30379;DHT22;17168;49.164;9.060;2023-08-21T15:55:39;36.70;48.00
30379;DHT22;17168;49.164;9.060;2023-08-21T15:58:11;36.60;48.10
30379;DHT22;17168;49.164;9.060;2023-08-21T16:00:46;36.60;48.20
30379;DHT22;17168;49.164;9.060;2023-08-21T16:03:18;36.60;48.50
30379;DHT22;17168;49.164;9.060;2023-08-21T16:05:51;36.50;48.60
30379;DHT22;17168;49.164;9.060;2023-08-21T16:08:24;36.50;48.60